Time;durP1;ratioP1;P1;durP2;ratioP2;P2;SDS_P1;SDS_P2;PMS_P1;PMS_P2;Temp;Humidity;BMP_temperature;BMP_pressure;BME280_temperature;BME280_humidity;BME280_pressure;Samples;Min_cycle;Max_cycle;Signal;HPM_P1;HPM_P2
2022/04/19 00:04:19;;;;;;;;;;;;;;;8.70;53.26;99207.47;4267023;33;35689;-91
2022/04/19 00:07:10;;;;;;;;;;;;;;;8.70;53.21;99200.56;4282757;33;34138;-89
2022/04/19 00:09:49;;;;;;;;;;;;;;;8.85;52.62;99193.47;4279472;33;34014;-92
2022/04/19 00:12:23;;;;;;;;;;;;;;;8.82;52.31;99196.94;4280874;33;35162;-90
2022/04/19 05:12:31;;;;;;;;;;;;;;;8.38;55.47;99092.34;4467648;31;785838;-90
2022/04/19 05:15:01;;;;;;;;;;;;;;;8.38;55.47;99092.34;4494612;31;30831;-91
2022/04/19 05:17:32;;;;;;;;;;;;;;;7.89;56.17;99096.44;4488109;32;33264;-89
2022/04/19 05:20:01;;;;;;;;;;;;;;;7.88;56.36;99094.72;4469232;32;33928;-91
2022/04/19 05:22:31;;;;;;;;;;;;;;;8.08;56.34;99094.47;4489617;31;33058;-89
2022/04/19 05:25:00;;;;;;;;;;;;;;;7.99;56.47;99092.00;4489606;31;32818;-89
2022/04/19 05:27:29;;;;;;;;;;;;;;;8.10;55.68;99092.75;4496841;31;34157;-90
2022/04/19 05:29:58;;;;;;;;;;;;;;;8.05;55.82;99096.25;4484236;31;34423;-91
2022/04/19 05:32:28;;;;;;;;;;;;;;;8.36;54.26;99099.31;4478189;31;33105;-88
2022/04/19 05:34:57;;;;;;;;;;;;;;;8.27;54.52;99107.19;4473325;32;34176;-90
2022/04/19 05:37:26;;;;;;;;;;;;;;;8.36;54.29;99099.31;4473039;32;34252;-91
2022/04/19 05:39:54;;;;;;;;;;;;;;;8.22;54.95;99094.31;4480968;32;34789;-89
2022/04/19 05:42:23;;;;;;;;;;;;;;;8.32;55.16;99093.31;4472958;32;33823;-89
2022/04/19 05:44:51;;;;;;;;;;;;;;;8.72;53.77;99099.66;4476530;32;33977;-89
2022/04/19 05:47:21;;;;;;;;;;;;;;;8.81;53.86;99104.69;4479320;32;34557;-89
2022/04/19 05:49:51;;;;;;;;;;;;;;;9.32;52.44;99102.13;4484931;31;34812;-89
2022/04/19 05:52:20;;;;;;;;;;;;;;;9.21;51.38;99098.03;4481678;32;32957;-90
2022/04/19 05:54:48;;;;;;;;;;;;;;;9.15;51.89;99104.16;4483589;32;33436;-91
2022/04/19 05:57:17;;;;;;;;;;;;;;;9.11;51.60;99097.31;4474032;32;34264;-91
2022/04/19 05:59:46;;;;;;;;;;;;;;;9.36;51.29;99101.19;4491794;32;34341;-91
2022/04/19 06:05:02;;;;;;;;;;;;;;;9.03;52.24;99101.78;4487021;31;33453;-88
2022/04/19 06:07:31;;;;;;;;;;;;;;;9.41;51.71;99098.53;4477481;32;33301;-89
2022/04/19 06:10:03;;;;;;;;;;;;;;;8.97;52.97;99103.59;4491796;31;34392;-89
2022/04/19 06:12:31;;;;;;;;;;;;;;;9.52;51.80;99104.38;4469929;32;34069;-91
2022/04/19 06:15:03;;;;;;;;;;;;;;;9.63;51.52;99101.56;4463032;32;34050;-88
2022/04/19 06:17:32;;;;;;;;;;;;;;;9.67;51.10;99104.97;4463888;32;34147;-90
2022/04/19 06:20:03;;;;;;;;;;;;;;;10.08;50.30;99103.31;4483814;32;33804;-90
2022/04/19 06:22:34;;;;;;;;;;;;;;;10.25;48.32;99098.62;4468824;32;33137;-91
2022/04/19 06:25:04;;;;;;;;;;;;;;;10.11;48.85;99098.91;4464968;32;32612;-88
2022/04/19 06:27:33;;;;;;;;;;;;;;;10.33;47.38;99098.47;4464812;32;34675;-89
2022/04/19 06:30:02;;;;;;;;;;;;;;;10.22;48.20;99094.34;4463475;32;34604;-89
2022/04/19 06:32:31;;;;;;;;;;;;;;;10.37;47.88;99092.34;4463153;32;33945;-90
2022/04/19 06:34:59;;;;;;;;;;;;;;;10.21;47.45;99090.03;4467493;32;33086;-87
2022/04/19 06:37:30;;;;;;;;;;;;;;;10.35;47.42;99094.13;4464745;32;35028;-89
2022/04/19 06:40:07;;;;;;;;;;;;;;;10.59;46.45;99090.12;4463015;32;33525;-89
2022/04/19 06:42:36;;;;;;;;;;;;;;;10.87;46.12;99087.72;4461675;32;34137;-91
2022/04/19 06:45:11;;;;;;;;;;;;;;;10.54;46.68;99091.97;4464976;32;32582;-92
2022/04/19 06:47:40;;;;;;;;;;;;;;;10.69;46.88;99094.22;4466270;32;33930;-90
2022/04/19 06:50:09;;;;;;;;;;;;;;;10.93;46.17;99091.94;4472976;32;33536;-91
2022/04/19 06:52:40;;;;;;;;;;;;;;;10.74;46.37;99097.53;4462619;32;34033;-92
2022/04/19 06:55:10;;;;;;;;;;;;;;;11.04;45.24;99093.37;4465220;32;32328;-91
2022/04/19 06:57:41;;;;;;;;;;;;;;;10.89;46.48;99091.12;4462472;32;34906;-91
2022/04/19 07:00:11;;;;;;;;;;;;;;;10.71;46.25;99089.00;4470486;32;33864;-90
2022/04/19 07:02:39;;;;;;;;;;;;;;;10.72;46.14;99085.50;4468138;32;34157;-89
2022/04/19 07:05:10;;;;;;;;;;;;;;;10.74;46.36;99083.72;4448882;32;32626;-89
2022/04/19 07:07:42;;;;;;;;;;;;;;;10.96;45.09;99087.50;4464455;32;33579;-88
2022/04/19 07:10:11;;;;;;;;;;;;;;;10.99;44.98;99090.00;4463507;32;34246;-89
2022/04/19 07:12:47;;;;;;;;;;;;;;;11.20;45.25;99095.56;4460484;32;33854;-87
2022/04/19 07:15:16;;;;;;;;;;;;;;;10.93;44.56;99087.59;4458353;32;32691;-89
2022/04/19 07:17:45;;;;;;;;;;;;;;;11.34;43.48;99088.28;4484236;32;33852;-92
2022/04/19 07:28:35;;;;;;;;;;;;;;;11.23;42.88;99091.16;4465717;32;34071;-92
2022/04/19 07:31:05;;;;;;;;;;;;;;;11.45;42.27;99086.28;4468050;32;34914;-92
2022/04/19 07:33:37;;;;;;;;;;;;;;;11.42;43.24;99080.28;4477136;32;33354;-89
2022/04/19 07:36:05;;;;;;;;;;;;;;;11.84;41.36;99075.69;4465652;32;33465;-90
2022/04/19 07:38:35;;;;;;;;;;;;;;;11.84;41.95;99075.69;4466908;32;33610;-90
2022/04/19 07:41:06;;;;;;;;;;;;;;;11.72;41.72;99078.63;4464679;32;33243;-90
2022/04/19 07:43:35;;;;;;;;;;;;;;;11.94;41.18;99071.97;4465287;32;32976;-90
2022/04/19 07:46:04;;;;;;;;;;;;;;;11.78;40.95;99081.03;4465384;32;33896;-91
2022/04/19 07:48:33;;;;;;;;;;;;;;;12.18;40.70;99074.75;4467762;32;34800;-92
2022/04/19 07:51:01;;;;;;;;;;;;;;;11.82;41.13;99080.06;4461340;32;33885;-91
2022/04/19 07:53:30;;;;;;;;;;;;;;;12.16;40.34;99079.13;4460894;32;33983;-91
2022/04/19 07:56:00;;;;;;;;;;;;;;;11.84;40.76;99086.09;4469684;32;32148;-88
2022/04/19 07:58:29;;;;;;;;;;;;;;;11.70;40.83;99078.66;4469700;32;34284;-90
2022/04/19 08:00:57;;;;;;;;;;;;;;;11.56;40.39;99079.94;4468859;32;33751;-90
2022/04/19 08:03:26;;;;;;;;;;;;;;;11.43;42.21;99079.37;4462903;32;33381;-89
2022/04/19 08:05:54;;;;;;;;;;;;;;;11.95;41.04;99072.81;4463476;32;32324;-90
2022/04/19 08:08:23;;;;;;;;;;;;;;;12.22;40.30;99078.09;4465893;32;34818;-92
2022/04/19 08:10:52;;;;;;;;;;;;;;;12.48;39.88;99082.50;4463333;32;33890;-89
2022/04/19 08:13:22;;;;;;;;;;;;;;;12.55;38.91;99078.81;4468294;32;32784;-91
2022/04/19 08:15:50;;;;;;;;;;;;;;;12.56;39.49;99090.91;4461016;32;33004;-89
2022/04/19 08:18:21;;;;;;;;;;;;;;;12.22;39.33;99086.75;4462367;32;35459;-91
2022/04/19 08:20:51;;;;;;;;;;;;;;;12.28;39.16;99085.72;4462284;32;34151;-92
2022/04/19 08:23:20;;;;;;;;;;;;;;;12.56;37.63;99088.31;4461351;32;35397;-89
2022/04/19 08:25:49;;;;;;;;;;;;;;;12.86;37.74;99080.47;4468145;32;31367;-93
2022/04/19 08:28:17;;;;;;;;;;;;;;;12.51;39.29;99079.81;4469040;32;33786;-92
2022/04/19 08:30:48;;;;;;;;;;;;;;;12.79;37.70;99077.19;4465864;32;33279;-90
2022/04/19 08:33:18;;;;;;;;;;;;;;;12.77;36.80;99079.00;4467725;32;33970;-88
2022/04/19 08:35:46;;;;;;;;;;;;;;;13.13;36.07;99071.72;4462485;32;33712;-91
2022/04/19 08:38:15;;;;;;;;;;;;;;;13.26;36.23;99068.72;4465895;32;33765;-91
2022/04/19 08:40:43;;;;;;;;;;;;;;;13.36;35.71;99067.53;4466197;32;34360;-88
2022/04/19 08:43:13;;;;;;;;;;;;;;;13.36;36.34;99063.19;4466367;32;33050;-92
2022/04/19 08:45:41;;;;;;;;;;;;;;;13.22;36.65;99063.63;4468079;32;33581;-92
2022/04/19 08:48:12;;;;;;;;;;;;;;;13.64;37.23;99067.41;4449974;32;32879;-89
2022/04/19 08:50:40;;;;;;;;;;;;;;;13.75;36.08;99061.81;4462268;32;33247;-89
2022/04/19 08:58:41;;;;;;;;;;;;;;;13.31;35.78;99059.00;4461541;32;35772;-90
2022/04/19 09:01:10;;;;;;;;;;;;;;;13.65;34.72;99056.06;4461428;32;34662;-93
2022/04/19 09:03:41;;;;;;;;;;;;;;;13.93;33.27;99052.47;4461577;32;34021;-90
2022/04/19 09:06:10;;;;;;;;;;;;;;;13.54;35.42;99053.88;4471999;32;33880;-93
2022/04/19 09:08:38;;;;;;;;;;;;;;;13.22;36.96;99048.00;4482871;32;34944;-90
2022/04/19 09:11:08;;;;;;;;;;;;;;;13.85;35.63;99044.94;4459120;32;34906;-91
2022/04/19 09:13:37;;;;;;;;;;;;;;;14.05;35.67;99046.81;4465089;32;34509;-90
2022/04/19 09:16:06;;;;;;;;;;;;;;;14.05;34.95;99052.00;4463977;32;32928;-93
2022/04/19 09:18:35;;;;;;;;;;;;;;;13.92;34.26;99056.84;4462173;32;34144;-89
2022/04/19 09:21:06;;;;;;;;;;;;;;;13.83;34.06;99051.97;4472492;32;34141;-91
2022/04/19 09:23:35;;;;;;;;;;;;;;;14.02;33.09;99055.59;4471281;32;33169;-91
2022/04/19 09:26:05;;;;;;;;;;;;;;;14.10;32.24;99050.09;4462546;32;32570;-92
2022/04/19 09:28:38;;;;;;;;;;;;;;;14.60;32.12;99046.47;4462638;32;34963;-93
2022/04/19 09:31:09;;;;;;;;;;;;;;;14.86;30.85;99053.22;4467811;32;34298;-90
2022/04/19 09:33:37;;;;;;;;;;;;;;;15.02;31.02;99043.00;4476849;32;33916;-90
2022/04/19 09:36:07;;;;;;;;;;;;;;;14.93;32.50;99046.81;4463959;32;33619;-90
2022/04/19 09:38:42;;;;;;;;;;;;;;;13.63;33.00;99042.28;4464200;32;35603;-89
2022/04/19 09:41:10;;;;;;;;;;;;;;;13.73;31.73;99042.78;4462354;32;33278;-90
2022/04/19 09:44:04;;;;;;;;;;;;;;;14.51;31.12;99038.03;4472327;32;33330;-93
2022/04/19 09:46:33;;;;;;;;;;;;;;;13.50;32.93;99039.22;4459795;32;33399;-90
2022/04/19 09:49:04;;;;;;;;;;;;;;;14.26;32.56;99038.16;4467654;32;34800;-91
2022/04/19 09:51:36;;;;;;;;;;;;;;;14.29;31.49;99045.84;4474934;32;34843;-90
2022/04/19 09:54:06;;;;;;;;;;;;;;;14.38;31.61;99043.81;4464713;32;33487;-89
2022/04/19 09:56:35;;;;;;;;;;;;;;;14.38;31.16;99034.22;4464210;32;33383;-91
2022/04/19 09:59:20;;;;;;;;;;;;;;;14.56;31.28;99043.09;4467378;32;33862;-90
2022/04/19 10:10:18;;;;;;;;;;;;;;;14.85;31.93;99039.31;4425251;32;33531;-90
2022/04/19 10:12:47;;;;;;;;;;;;;;;14.68;32.54;99037.38;4418870;32;34861;-92
2022/04/19 10:15:17;;;;;;;;;;;;;;;14.72;31.11;99032.91;4416389;32;33714;-91
2022/04/19 10:17:46;;;;;;;;;;;;;;;15.13;30.41;99025.13;4421988;32;32387;-92
2022/04/19 10:20:15;;;;;;;;;;;;;;;15.26;30.13;99021.06;4421317;32;34742;-92
2022/04/19 10:22:48;;;;;;;;;;;;;;;15.24;29.28;99025.50;4416216;32;33824;-89
2022/04/19 10:25:17;;;;;;;;;;;;;;;15.50;29.20;99011.28;4424452;32;33419;-91
2022/04/19 10:27:49;;;;;;;;;;;;;;;15.68;28.99;99014.00;4412954;32;32946;-91
2022/04/19 10:30:20;;;;;;;;;;;;;;;15.52;29.64;99019.09;4419520;32;32998;-89
2022/04/19 10:32:48;;;;;;;;;;;;;;;15.30;30.65;99009.56;4414996;32;34284;-89
2022/04/19 10:35:17;;;;;;;;;;;;;;;14.71;31.39;99015.53;4429981;32;33787;-90
2022/04/19 10:37:49;;;;;;;;;;;;;;;14.55;31.79;99020.53;4418535;32;33116;-91
2022/04/19 10:40:23;;;;;;;;;;;;;;;13.88;33.28;99009.16;4439281;32;33989;-90
2022/04/19 10:42:52;;;;;;;;;;;;;;;14.64;32.32;99006.25;4468789;32;35469;-91
2022/04/19 10:45:25;;;;;;;;;;;;;;;14.17;32.91;99012.41;4463879;32;33300;-91
2022/04/19 10:48:02;;;;;;;;;;;;;;;14.77;31.39;99009.22;4467620;32;33183;-91
2022/04/19 10:50:33;;;;;;;;;;;;;;;13.95;31.21;99015.00;4463769;32;33827;-91
2022/04/19 10:53:09;;;;;;;;;;;;;;;13.85;31.04;99014.50;4470623;32;33767;-90
2022/04/19 10:55:40;;;;;;;;;;;;;;;14.20;29.60;99016.66;4472138;32;33880;-91
2022/04/19 11:00:59;;;;;;;;;;;;;;;13.66;33.40;99011.72;4462380;32;33077;-89
2022/04/19 11:03:44;;;;;;;;;;;;;;;13.57;33.97;99013.81;4468795;32;33949;-88
2022/04/19 11:06:31;;;;;;;;;;;;;;;12.83;35.20;99011.13;4471027;32;36541;-88
2022/04/19 11:09:06;;;;;;;;;;;;;;;12.64;37.10;99016.09;4469311;32;34104;-89
2022/04/19 11:11:53;;;;;;;;;;;;;;;12.28;39.24;99018.09;4453321;32;32905;-91
2022/04/19 11:14:37;;;;;;;;;;;;;;;12.27;40.49;99021.59;4469900;32;33931;-88
2022/04/19 11:17:18;;;;;;;;;;;;;;;11.71;42.42;99022.34;4468427;32;34181;-90
2022/04/19 11:19:51;;;;;;;;;;;;;;;12.15;40.48;99026.28;4467224;32;33333;-90
2022/04/19 11:22:29;;;;;;;;;;;;;;;12.05;42.77;99019.63;4468591;32;34016;-88
2022/04/19 11:25:01;;;;;;;;;;;;;;;12.14;42.56;99026.31;4473624;32;34000;-88
2022/04/19 11:27:48;;;;;;;;;;;;;;;11.88;44.84;99025.34;4472072;32;34434;-88
2022/04/19 11:30:18;;;;;;;;;;;;;;;11.76;40.96;99030.84;4474223;32;32884;-92
2022/04/19 11:32:49;;;;;;;;;;;;;;;11.55;43.65;99037.53;4485236;32;35920;-88
2022/04/19 11:35:17;;;;;;;;;;;;;;;11.54;41.87;99048.78;4464694;32;34090;-89
2022/04/19 11:37:46;;;;;;;;;;;;;;;11.29;41.49;99038.22;4463774;32;34122;-90
2022/04/19 11:48:44;;;;;;;;;;;;;;;11.21;45.28;99054.00;4462483;32;34082;-89
2022/04/19 11:51:14;;;;;;;;;;;;;;;10.33;47.87;99050.06;4474694;32;33034;-92
2022/04/19 11:53:43;;;;;;;;;;;;;;;10.19;50.45;99052.06;4464193;32;34757;-88
2022/04/19 11:56:11;;;;;;;;;;;;;;;9.79;51.41;99053.78;4473282;32;34947;-89
2022/04/19 11:58:41;;;;;;;;;;;;;;;9.75;52.99;99059.03;4480097;32;34521;-89
2022/04/19 12:01:11;;;;;;;;;;;;;;;9.54;53.58;99062.91;4480441;32;33569;-90
2022/04/19 12:03:40;;;;;;;;;;;;;;;9.80;53.33;99068.41;4479717;32;33984;-88
2022/04/19 12:06:10;;;;;;;;;;;;;;;9.91;53.99;99070.81;4476762;32;34168;-88
2022/04/19 12:08:39;;;;;;;;;;;;;;;9.83;52.13;99063.19;4468210;32;33524;-87
2022/04/19 12:11:08;;;;;;;;;;;;;;;9.83;55.58;99063.19;4463381;32;33350;-89
2022/04/19 12:13:37;;;;;;;;;;;;;;;9.76;54.19;99071.09;4464277;32;33731;-88
2022/04/19 12:16:09;;;;;;;;;;;;;;;9.76;55.20;99069.38;4472887;32;34876;-88
2022/04/19 12:18:39;;;;;;;;;;;;;;;9.37;54.59;99070.97;4483233;32;33617;-89
2022/04/19 12:21:08;;;;;;;;;;;;;;;9.36;56.55;99071.87;4479984;32;33990;-91
2022/04/19 12:23:37;;;;;;;;;;;;;;;9.50;55.89;99072.47;4481122;32;34122;-88
2022/04/19 12:26:07;;;;;;;;;;;;;;;9.23;57.27;99073.84;4471354;32;33965;-87
2022/04/19 12:28:40;;;;;;;;;;;;;;;9.30;57.07;99072.84;4464153;32;33666;-88
2022/04/19 12:31:08;;;;;;;;;;;;;;;9.18;57.25;99073.91;4469198;32;33039;-90
2022/04/19 12:33:53;;;;;;;;;;;;;;;9.32;55.09;99070.22;4467944;32;34620;-91
2022/04/19 12:36:25;;;;;;;;;;;;;;;9.48;55.71;99074.22;4467094;32;35064;-91
2022/04/19 12:39:01;;;;;;;;;;;;;;;9.52;57.17;99070.72;4479685;32;34123;-88
2022/04/19 12:41:34;;;;;;;;;;;;;;;9.64;55.54;99072.22;4480164;32;33427;-89
2022/04/19 12:44:02;;;;;;;;;;;;;;;9.76;55.63;99078.87;4479948;32;34121;-91
2022/04/19 12:46:34;;;;;;;;;;;;;;;9.69;55.10;99080.75;4468372;32;35043;-87
2022/04/19 12:49:04;;;;;;;;;;;;;;;9.77;55.94;99076.25;4468348;32;33569;-88
2022/04/19 12:51:35;;;;;;;;;;;;;;;9.68;56.52;99071.25;4462327;32;34071;-89
2022/04/19 12:54:04;;;;;;;;;;;;;;;9.39;56.58;99067.47;4464301;32;33662;-91
2022/04/19 12:56:33;;;;;;;;;;;;;;;10.11;53.91;99075.56;4477387;32;34960;-88
2022/04/19 12:59:02;;;;;;;;;;;;;;;10.01;54.96;99076.66;4479459;32;34078;-90
2022/04/19 13:01:30;;;;;;;;;;;;;;;9.72;56.93;99075.50;4484587;32;33008;-91
2022/04/19 13:03:59;;;;;;;;;;;;;;;9.67;55.09;99072.16;4479648;32;34517;-91
2022/04/19 13:12:17;;;;;;;;;;;;;;;10.35;54.69;99071.63;4468652;32;33300;-88
2022/04/19 13:14:47;;;;;;;;;;;;;;;10.66;52.56;99060.56;4468006;32;34856;-88
2022/04/19 13:17:24;;;;;;;;;;;;;;;10.71;53.20;99065.66;4463019;32;33033;-91
2022/04/19 13:19:53;;;;;;;;;;;;;;;11.02;51.41;99069.19;4476563;32;33743;-90
2022/04/19 13:22:22;;;;;;;;;;;;;;;11.25;51.13;99070.34;4465852;32;33690;-91
2022/04/19 13:24:51;;;;;;;;;;;;;;;11.22;52.28;99075.62;4463374;32;34057;-90
2022/04/19 13:27:19;;;;;;;;;;;;;;;11.47;50.29;99070.63;4467141;32;33963;-91
2022/04/19 13:29:48;;;;;;;;;;;;;;;11.59;48.85;99078.09;4473729;32;33759;-90
2022/04/19 13:32:16;;;;;;;;;;;;;;;12.05;47.89;99069.03;4478889;32;33282;-92
2022/04/19 13:34:46;;;;;;;;;;;;;;;11.82;48.56;99074.88;4468957;32;34087;-88
2022/04/19 13:37:15;;;;;;;;;;;;;;;11.67;48.87;99072.69;4471581;32;35014;-89
2022/04/19 13:39:44;;;;;;;;;;;;;;;11.80;48.67;99068.84;4474349;32;34912;-90
2022/04/19 13:42:13;;;;;;;;;;;;;;;12.46;46.30;99071.31;4465821;32;35240;-89
2022/04/19 13:44:42;;;;;;;;;;;;;;;12.73;44.73;99065.25;4463426;32;33861;-90
2022/04/19 13:47:10;;;;;;;;;;;;;;;12.63;46.15;99060.38;4472352;32;34354;-92
2022/04/19 13:49:41;;;;;;;;;;;;;;;12.80;45.91;99069.31;4472804;32;33775;-91
2022/04/19 13:52:10;;;;;;;;;;;;;;;11.94;47.53;99066.75;4466585;32;33221;-89
2022/04/19 13:54:45;;;;;;;;;;;;;;;12.56;47.75;99070.09;4476869;32;34642;-89
2022/04/19 13:57:14;;;;;;;;;;;;;;;12.93;48.21;99072.41;4478769;32;34373;-92
2022/04/19 13:59:47;;;;;;;;;;;;;;;13.35;47.42;99063.22;4477653;32;33726;-89
2022/04/19 14:02:16;;;;;;;;;;;;;;;13.71;45.33;99066.28;4468524;32;33952;-93
2022/04/19 14:04:45;;;;;;;;;;;;;;;14.04;45.63;99065.97;4453499;32;32669;-88
2022/04/19 14:07:14;;;;;;;;;;;;;;;14.67;44.55;99064.44;4481205;32;34873;-92
2022/04/19 14:09:43;;;;;;;;;;;;;;;15.06;43.45;99068.09;4479350;32;33660;-89
2022/04/19 14:12:15;;;;;;;;;;;;;;;15.75;41.98;99058.16;4470253;32;33227;-92
2022/04/19 14:14:44;;;;;;;;;;;;;;;16.09;40.89;99048.81;4467820;32;34101;-90
2022/04/19 14:17:14;;;;;;;;;;;;;;;16.04;39.93;99057.75;4473196;32;34087;-90
2022/04/19 14:19:45;;;;;;;;;;;;;;;15.98;39.19;99058.91;4465277;32;33321;-92
2022/04/19 14:22:15;;;;;;;;;;;;;;;15.29;41.74;99059.28;4465531;32;34098;-89
2022/04/19 14:24:44;;;;;;;;;;;;;;;16.03;41.46;99051.69;4465110;32;34406;-91
2022/04/19 14:27:15;;;;;;;;;;;;;;;15.79;40.66;99053.63;4469829;32;34722;-90
2022/04/19 14:35:23;;;;;;;;;;;;;;;16.92;37.20;99062.38;4472326;32;33755;-91
2022/04/19 14:37:51;;;;;;;;;;;;;;;16.62;38.06;99055.91;4450904;32;33923;-90
2022/04/19 14:40:20;;;;;;;;;;;;;;;16.77;38.10;99049.06;4464961;32;34298;-93
2022/04/19 14:42:50;;;;;;;;;;;;;;;16.72;36.82;99050.19;4470319;32;33170;-90
2022/04/19 14:45:20;;;;;;;;;;;;;;;17.13;37.82;99053.44;4465563;32;34404;-93
2022/04/19 14:47:48;;;;;;;;;;;;;;;16.93;37.43;99051.78;4465148;32;34056;-90
2022/04/19 14:50:17;;;;;;;;;;;;;;;16.96;35.53;99053.41;4465465;32;34142;-92
2022/04/19 14:52:46;;;;;;;;;;;;;;;16.90;36.56;99054.56;4464905;32;33981;-90
2022/04/19 14:55:21;;;;;;;;;;;;;;;17.16;35.09;99041.94;4467926;32;34046;-92
2022/04/19 14:57:49;;;;;;;;;;;;;;;16.08;37.31;99048.84;4474295;32;35075;-91
2022/04/19 15:00:20;;;;;;;;;;;;;;;15.89;37.09;99046.22;4464558;32;33994;-89
2022/04/19 15:02:49;;;;;;;;;;;;;;;15.29;38.39;99048.81;4465920;32;33117;-90
2022/04/19 15:05:17;;;;;;;;;;;;;;;16.41;37.58;99049.06;4464895;32;34885;-90
2022/04/19 15:07:46;;;;;;;;;;;;;;;15.70;37.00;99049.66;4465130;32;34928;-90
2022/04/19 15:10:14;;;;;;;;;;;;;;;15.59;37.77;99051.88;4468704;32;32473;-91
2022/04/19 15:13:03;;;;;;;;;;;;;;;16.21;37.22;99050.84;4464540;32;33271;-90
2022/04/19 15:15:34;;;;;;;;;;;;;;;15.71;37.37;99056.59;4465482;32;34396;-91
2022/04/19 15:18:07;;;;;;;;;;;;;;;15.19;38.77;99052.75;4464591;32;33756;-92
2022/04/19 15:20:36;;;;;;;;;;;;;;;14.52;39.57;99060.62;4464681;32;34013;-90
2022/04/19 15:23:05;;;;;;;;;;;;;;;15.20;39.16;99055.31;4464470;32;33407;-90
2022/04/19 15:25:33;;;;;;;;;;;;;;;15.05;38.23;99050.69;4469407;32;34937;-90
2022/04/19 15:28:03;;;;;;;;;;;;;;;15.45;37.24;99065.53;4465517;32;35668;-90
2022/04/19 15:30:33;;;;;;;;;;;;;;;14.39;39.86;99058.56;4463533;32;33567;-90
2022/04/19 15:33:02;;;;;;;;;;;;;;;13.65;42.17;99066.50;4463409;32;32689;-90
2022/04/19 15:35:31;;;;;;;;;;;;;;;13.58;42.27;99070.22;4473507;32;33962;-90
2022/04/19 15:37:59;;;;;;;;;;;;;;;12.88;43.08;99069.09;4474628;32;34148;-90
2022/04/19 15:40:28;;;;;;;;;;;;;;;12.98;43.05;99067.91;4469590;32;34027;-90
2022/04/19 15:42:56;;;;;;;;;;;;;;;12.19;45.15;99067.78;4476626;32;33871;-90
2022/04/19 15:45:25;;;;;;;;;;;;;;;12.52;44.71;99068.53;4468138;32;34045;-90
2022/04/19 15:48:04;;;;;;;;;;;;;;;11.71;46.69;99071.72;4472731;32;34151;-89
2022/04/19 15:50:35;;;;;;;;;;;;;;;13.02;44.43;99066.03;4468087;32;33582;-89
2022/04/19 15:53:03;;;;;;;;;;;;;;;13.08;44.53;99065.84;4467411;32;33165;-92
2022/04/19 15:55:32;;;;;;;;;;;;;;;13.39;44.04;99067.44;4451694;32;32359;-92
2022/04/19 15:58:00;;;;;;;;;;;;;;;13.11;44.53;99073.53;4472183;32;34040;-90
2022/04/19 16:00:29;;;;;;;;;;;;;;;12.78;46.22;99071.16;4466866;32;33954;-90
2022/04/19 16:02:57;;;;;;;;;;;;;;;12.09;48.34;99081.06;4478354;32;32826;-89
2022/04/19 16:05:27;;;;;;;;;;;;;;;11.84;49.47;99078.28;4466096;32;34037;-90
2022/04/19 16:07:56;;;;;;;;;;;;;;;11.84;49.03;99087.81;4473557;32;33484;-89
2022/04/19 16:10:24;;;;;;;;;;;;;;;11.38;50.26;99092.53;4464547;32;34336;-89
2022/04/19 16:12:55;;;;;;;;;;;;;;;11.21;51.51;99097.28;4464110;32;32887;-90
2022/04/19 16:15:25;;;;;;;;;;;;;;;11.36;51.64;99101.25;4479085;32;34842;-91
2022/04/19 16:23:27;;;;;;;;;;;;;;;10.52;54.48;99097.19;4464358;32;33725;-88
2022/04/19 16:25:56;;;;;;;;;;;;;;;10.05;55.68;99101.59;4463392;32;34952;-91
2022/04/19 16:28:26;;;;;;;;;;;;;;;10.06;54.78;99092.13;4463805;32;34260;-89
2022/04/19 16:30:57;;;;;;;;;;;;;;;9.97;53.68;99095.72;4473423;32;34684;-90
2022/04/19 16:33:28;;;;;;;;;;;;;;;10.10;52.29;99094.63;4474492;32;33254;-89
2022/04/19 16:35:57;;;;;;;;;;;;;;;9.87;53.62;99095.06;4463131;32;33890;-89
2022/04/19 16:38:26;;;;;;;;;;;;;;;10.05;53.55;99091.22;4462848;32;34159;-89
2022/04/19 16:40:55;;;;;;;;;;;;;;;9.88;53.36;99095.91;4449964;32;32997;-88
2022/04/19 16:43:23;;;;;;;;;;;;;;;9.45;53.98;99096.72;4464614;32;33404;-92
2022/04/19 16:45:52;;;;;;;;;;;;;;;9.82;52.85;99094.31;4469190;32;33660;-89
2022/04/19 16:48:20;;;;;;;;;;;;;;;10.20;51.87;99098.72;4464256;32;34752;-90
2022/04/19 16:50:49;;;;;;;;;;;;;;;9.92;51.77;99105.34;4475241;32;33841;-91
2022/04/19 16:53:22;;;;;;;;;;;;;;;10.54;50.10;99103.19;4478312;32;33742;-88
2022/04/19 16:55:51;;;;;;;;;;;;;;;10.12;51.49;99100.59;4479562;32;34564;-90
2022/04/19 16:58:22;;;;;;;;;;;;;;;9.52;53.69;99099.19;4484231;32;34056;-89
2022/04/19 17:00:50;;;;;;;;;;;;;;;9.80;53.88;99098.66;4479237;32;34081;-89
2022/04/19 17:06:08;;;;;;;;;;;;;;;8.81;57.69;99089.19;4463834;32;33973;-88
2022/04/19 17:08:37;;;;;;;;;;;;;;;9.05;57.13;99089.66;4464082;32;34981;-89
2022/04/19 17:11:06;;;;;;;;;;;;;;;9.02;57.11;99087.13;4467319;32;33817;-90
2022/04/19 17:13:34;;;;;;;;;;;;;;;8.82;57.73;99088.31;4484485;32;33339;-89
2022/04/19 17:16:03;;;;;;;;;;;;;;;8.66;58.38;99100.63;4479544;32;34357;-90
2022/04/19 17:18:31;;;;;;;;;;;;;;;9.12;57.02;99097.28;4479610;32;34235;-91
2022/04/19 17:21:00;;;;;;;;;;;;;;;9.00;57.22;99094.91;4475681;32;33991;-89
2022/04/19 17:23:28;;;;;;;;;;;;;;;8.90;57.88;99095.94;4463628;32;32987;-90
2022/04/19 17:25:58;;;;;;;;;;;;;;;9.19;57.12;99111.84;4468414;32;34150;-89
2022/04/19 17:28:28;;;;;;;;;;;;;;;8.84;58.62;99108.97;4464041;32;35874;-88
2022/04/19 17:30:57;;;;;;;;;;;;;;;8.98;58.38;99110.44;4463238;32;34175;-89
2022/04/19 17:33:25;;;;;;;;;;;;;;;8.98;58.62;99115.63;4463618;32;33813;-89
2022/04/19 17:35:54;;;;;;;;;;;;;;;8.92;58.72;99118.31;4463455;32;34259;-89
2022/04/19 17:38:22;;;;;;;;;;;;;;;8.98;58.57;99122.53;4468625;32;34746;-91
2022/04/19 17:40:51;;;;;;;;;;;;;;;9.00;58.13;99120.78;4465902;32;34336;-92
2022/04/19 17:43:22;;;;;;;;;;;;;;;9.45;56.72;99130.38;4463512;32;33083;-90
2022/04/19 17:45:50;;;;;;;;;;;;;;;8.98;57.74;99133.72;4463383;32;34077;-88
2022/04/19 17:48:19;;;;;;;;;;;;;;;9.03;57.99;99136.25;4462795;32;34330;-89
2022/04/19 17:56:32;;;;;;;;;;;;;;;9.32;56.58;99134.94;4434388;32;34239;-90
2022/04/19 17:59:04;;;;;;;;;;;;;;;9.22;57.10;99142.00;4429701;32;34196;-87
2022/04/19 18:01:33;;;;;;;;;;;;;;;9.18;57.04;99153.25;4415192;32;33536;-90
2022/04/19 18:04:04;;;;;;;;;;;;;;;9.36;56.31;99158.16;4414631;32;33068;-89
2022/04/19 18:06:32;;;;;;;;;;;;;;;9.30;56.33;99153.09;4414275;32;33733;-90
2022/04/19 18:09:01;;;;;;;;;;;;;;;9.24;56.76;99168.72;4420599;32;34077;-90
2022/04/19 18:11:30;;;;;;;;;;;;;;;9.15;57.22;99164.53;4416223;32;33863;-90
2022/04/19 18:13:58;;;;;;;;;;;;;;;9.20;57.32;99169.63;4416455;32;33150;-91
2022/04/19 18:16:28;;;;;;;;;;;;;;;9.03;57.65;99176.81;4417142;32;33984;-91
2022/04/19 18:18:56;;;;;;;;;;;;;;;8.68;59.33;99170.41;4431949;32;34774;-88
2022/04/19 18:21:27;;;;;;;;;;;;;;;9.22;57.38;99174.78;4428939;32;33772;-92
2022/04/19 18:26:41;;;;;;;;;;;;;;;9.03;58.18;99176.81;4432054;32;34734;-91
2022/04/19 18:29:11;;;;;;;;;;;;;;;8.90;58.35;99171.81;4431613;32;34794;-91
2022/04/19 18:31:40;;;;;;;;;;;;;;;9.06;58.02;99175.03;4418743;32;34114;-91
2022/04/19 18:34:09;;;;;;;;;;;;;;;8.75;58.98;99178.06;4450185;32;35144;-88
2022/04/19 18:36:37;;;;;;;;;;;;;;;9.29;57.41;99197.09;4469780;32;34583;-88
2022/04/19 18:39:06;;;;;;;;;;;;;;;9.39;56.98;99196.91;4468942;32;33953;-88
2022/04/19 18:41:35;;;;;;;;;;;;;;;9.57;56.19;99200.09;4465443;32;34405;-91
2022/04/19 18:44:03;;;;;;;;;;;;;;;9.49;56.26;99207.97;4472653;32;33848;-90
2022/04/19 18:46:31;;;;;;;;;;;;;;;9.41;56.68;99209.84;4464003;32;33917;-89
2022/04/19 18:49:06;;;;;;;;;;;;;;;9.57;55.94;99215.66;4476062;32;34991;-90
2022/04/19 18:51:35;;;;;;;;;;;;;;;9.23;56.79;99220.47;4477296;32;34617;-91
2022/04/19 18:54:03;;;;;;;;;;;;;;;9.31;56.89;99218.66;4463869;32;33371;-91
2022/04/19 18:56:32;;;;;;;;;;;;;;;9.40;56.41;99218.50;4463483;32;33840;-88
2022/04/19 18:59:00;;;;;;;;;;;;;;;9.30;56.51;99219.50;4463311;32;33883;-91
2022/04/19 19:01:29;;;;;;;;;;;;;;;9.38;56.37;99221.13;4463400;32;33986;-90
2022/04/19 19:03:57;;;;;;;;;;;;;;;9.22;56.59;99229.13;4467742;32;33629;-90
2022/04/19 19:06:27;;;;;;;;;;;;;;;9.32;56.28;99223.78;4467850;32;33184;-89
2022/04/19 19:08:56;;;;;;;;;;;;;;;9.23;56.52;99231.72;4463334;32;33430;-89
2022/04/19 19:11:24;;;;;;;;;;;;;;;9.02;57.45;99232.03;4470274;32;34800;-90